createdAt,value
2022-08-05T00:00:26.025Z,100.00
2022-08-05T00:15:56.230Z,100.00
2022-08-05T00:30:33.499Z,100.00
2022-08-05T00:45:38.606Z,100.00
2022-08-05T01:00:33.909Z,100.00
2022-08-05T01:15:36.510Z,100.00
2022-08-05T01:30:33.747Z,100.00
2022-08-05T01:45:23.350Z,100.00
2022-08-05T02:00:30.541Z,100.00
2022-08-05T02:15:23.480Z,100.00
2022-08-05T02:30:23.359Z,100.00
2022-08-05T02:45:24.123Z,100.00
2022-08-05T03:00:25.338Z,100.00
2022-08-05T03:15:24.321Z,100.00
2022-08-05T03:30:30.297Z,100.00
2022-08-05T03:45:23.777Z,100.00
2022-08-05T04:00:31.464Z,100.00
2022-08-05T04:15:24.458Z,100.00
2022-08-05T04:30:23.651Z,100.00
2022-08-05T04:45:48.567Z,100.00
2022-08-05T05:00:23.898Z,100.00
2022-08-05T05:15:56.714Z,100.00
2022-08-05T05:30:31.226Z,100.00
2022-08-05T05:45:24.542Z,100.00
2022-08-05T06:00:27.599Z,100.00
2022-08-05T06:15:24.420Z,100.00
2022-08-05T06:30:23.987Z,100.00
2022-08-05T06:45:44.548Z,99.30
2022-08-05T07:00:24.816Z,95.10
2022-08-05T07:15:34.203Z,79.27
2022-08-05T07:30:27.963Z,66.03
2022-08-05T07:45:57.014Z,52.00
2022-08-05T08:00:24.161Z,50.83
2022-08-05T08:16:33.949Z,45.65
2022-08-05T08:30:32.538Z,44.40
2022-08-05T08:45:26.633Z,43.97
2022-08-05T09:00:24.395Z,45.30
2022-08-05T09:15:23.940Z,48.17
2022-08-05T09:30:23.989Z,48.35
2022-08-05T09:46:06.729Z,50.17
2022-08-05T10:00:24.578Z,48.10
2022-08-05T10:15:24.008Z,47.37
2022-08-05T10:31:21.048Z,48.40
2022-08-05T10:45:39.901Z,49.45
2022-08-05T11:00:23.966Z,48.17
2022-08-05T11:15:59.270Z,48.55
2022-08-05T11:30:33.160Z,47.27
2022-08-05T11:46:23.373Z,45.27
2022-08-05T12:00:38.264Z,46.60
2022-08-05T12:15:38.375Z,45.03
2022-08-05T12:30:23.193Z,42.43
2022-08-05T12:45:23.267Z,42.67
2022-08-05T13:02:00.630Z,42.50
2022-08-05T13:15:24.509Z,42.43
2022-08-05T13:30:35.314Z,42.13
2022-08-05T13:45:23.369Z,41.30
2022-08-05T14:00:27.262Z,41.17
2022-08-05T14:16:04.519Z,52.33
2022-08-05T14:30:23.312Z,65.50
2022-08-05T14:45:23.313Z,100.00
2022-08-05T15:00:28.070Z,100.00
2022-08-05T15:15:54.304Z,100.00
2022-08-05T15:30:23.522Z,96.87
2022-08-05T15:45:37.778Z,91.90
2022-08-05T16:00:30.621Z,76.60
2022-08-05T16:15:23.565Z,75.60
2022-08-05T16:30:26.110Z,73.47
2022-08-05T16:46:05.421Z,73.70
2022-08-05T17:00:34.306Z,74.33
2022-08-05T17:15:24.005Z,78.23
2022-08-05T17:30:28.955Z,80.60
2022-08-05T17:45:23.687Z,82.00
2022-08-05T18:00:28.569Z,83.20
2022-08-05T18:15:23.703Z,83.27
2022-08-05T18:30:26.420Z,85.60
2022-08-05T18:45:23.709Z,89.33
2022-08-05T19:00:27.209Z,95.83
2022-08-05T19:15:58.166Z,100.00
2022-08-05T19:30:23.847Z,100.00
2022-08-05T19:45:25.609Z,100.00
2022-08-05T20:00:24.410Z,100.00
2022-08-05T20:15:50.784Z,100.00
2022-08-05T20:30:24.282Z,100.00
2022-08-05T20:45:24.029Z,100.00
2022-08-05T21:00:41.306Z,100.00
2022-08-05T21:15:23.962Z,100.00
2022-08-05T21:30:24.097Z,100.00
2022-08-05T21:45:51.901Z,100.00
2022-08-05T22:16:00.990Z,100.00
2022-08-05T22:30:23.541Z,100.00
2022-08-05T22:45:23.133Z,100.00
2022-08-05T23:00:23.886Z,100.00
2022-08-05T23:15:29.454Z,100.00
2022-08-05T23:30:27.138Z,100.00
2022-08-05T23:45:24.191Z,100.00
